Time;durP1;ratioP1;P1;durP2;ratioP2;P2;SDS_P1;SDS_P2;PMS_P1;PMS_P2;Temp;Humidity;BMP_temperature;BMP_pressure;BME280_temperature;BME280_humidity;BME280_pressure;Samples;Min_cycle;Max_cycle;Signal;HPM_P1;HPM_P2
2021/03/28 00:01:03;;;;;;;9.07;3.45;;;;;;;5.91;76.40;101687.34;4966879;28;20059;-81
2021/03/28 00:03:51;;;;;;;7.88;4.20;;;;;;;5.93;76.67;101685.56;4991295;28;20054;-79
2021/03/28 00:06:22;;;;;;;10.48;3.78;;;;;;;5.92;76.25;101693.47;4992419;28;20055;-80
2021/03/28 00:09:07;;;;;;;9.13;3.88;;;;;;;5.94;76.72;101697.81;4994998;28;20074;-79
2021/03/28 00:11:36;;;;;;;12.55;4.22;;;;;;;5.96;76.07;101682.91;4990192;28;20125;-80
2021/03/28 00:14:04;;;;;;;9.05;4.18;;;;;;;5.99;75.85;101687.25;4972840;28;20574;-81
2021/03/28 00:16:45;;;;;;;9.68;3.83;;;;;;;5.97;75.93;101695.19;4976152;28;20535;-81
2021/03/28 00:19:31;;;;;;;9.30;3.88;;;;;;;5.94;76.42;101687.31;4972498;28;20106;-82
2021/03/28 00:21:59;;;;;;;8.13;3.60;;;;;;;5.94;76.49;101689.94;4985319;28;20054;-81
2021/03/28 00:24:30;;;;;;;9.73;4.30;;;;;;;5.96;76.36;101684.69;4977241;28;20089;-79
2021/03/28 00:27:08;;;;;;;9.10;4.00;;;;;;;6.00;76.11;101686.38;4979838;28;20537;-79
2021/03/28 00:29:51;;;;;;;10.45;3.50;;;;;;;6.08;76.23;101694.22;4978670;28;20054;-80
2021/03/28 00:32:40;;;;;;;10.15;3.70;;;;;;;6.19;76.13;101698.50;4985595;28;20246;-81
2021/03/28 00:35:13;;;;;;;7.50;3.33;;;;;;;6.27;75.77;101701.97;4988206;28;20035;-81
2021/03/28 00:37:42;;;;;;;9.23;3.75;;;;;;;6.25;75.63;101695.81;4967790;28;20093;-80
2021/03/28 00:40:09;;;;;;;13.02;3.95;;;;;;;6.29;74.76;101704.56;4986089;28;20042;-81
2021/03/28 00:42:46;;;;;;;11.98;4.10;;;;;;;6.26;75.14;101694.06;4991941;28;20047;-82
2021/03/28 00:45:28;;;;;;;8.60;3.58;;;;;;;6.30;74.96;101694.00;4993205;28;20086;-82
2021/03/28 00:48:13;;;;;;;8.43;3.88;;;;;;;6.30;75.30;101685.25;4986675;28;20066;-83
2021/03/28 00:50:44;;;;;;;10.50;4.18;;;;;;;6.29;75.12;101688.78;4993941;28;20065;-81
2021/03/28 00:53:13;;;;;;;11.70;4.07;;;;;;;6.29;75.04;101689.66;4991799;28;20080;-82
2021/03/28 00:56:00;;;;;;;7.18;3.67;;;;;;;6.29;75.11;101692.28;4993469;28;20069;-81
2021/03/28 00:58:40;;;;;;;9.82;3.60;;;;;;;6.28;75.08;101692.31;4970630;28;20129;-81
2021/03/28 01:01:25;;;;;;;11.80;4.13;;;;;;;6.29;74.85;101683.53;4971776;28;20422;-80
2021/03/28 01:04:13;;;;;;;12.02;3.80;;;;;;;6.28;75.25;101679.16;4960292;28;20042;-81
2021/03/28 01:06:47;;;;;;;13.13;4.55;;;;;;;6.28;74.95;101682.66;4964793;28;20069;-80
2021/03/28 01:09:38;;;;;;;7.97;3.33;;;;;;;6.27;74.88;101682.66;4966067;28;20070;-80
2021/03/28 01:12:42;;;;;;;8.00;3.65;;;;;;;6.29;75.26;101679.13;4969463;28;20146;-81
2021/03/28 01:15:36;;;;;;;7.40;3.67;;;;;;;6.30;75.13;101687.88;4966704;28;20050;-79
2021/03/28 01:18:24;;;;;;;7.55;3.35;;;;;;;6.30;75.10;101682.63;4960709;28;20483;-80
2021/03/28 01:21:19;;;;;;;8.90;3.42;;;;;;;6.30;75.28;101686.13;4986928;28;20047;-79
2021/03/28 01:24:00;;;;;;;11.32;3.95;;;;;;;6.33;75.52;101687.84;4960914;29;20101;-78
2021/03/28 01:26:41;;;;;;;;;;;;;;;6.37;74.92;101691.34;4971370;28;20194;-78
2021/03/28 01:29:28;;;;;;;7.00;2.88;;;;;;;6.39;75.34;101689.56;4993446;28;19962;-79
2021/03/28 01:32:05;;;;;;;13.98;3.80;;;;;;;6.38;74.88;101682.56;4984928;28;20101;-78
2021/03/28 01:34:56;;;;;;;7.47;3.50;;;;;;;6.42;75.21;101679.91;4966807;28;20078;-79
2021/03/28 01:37:39;;;;;;;8.38;3.60;;;;;;;6.38;75.50;101669.41;4975874;28;20456;-80
2021/03/28 01:40:22;;;;;;;13.70;4.22;;;;;;;6.45;75.45;101681.63;4977629;28;20058;-81
2021/03/28 01:43:33;;;;;;;9.65;3.45;;;;;;;6.68;74.00;101693.66;4970029;28;20057;-79
2021/03/28 01:46:39;;;;;;;10.77;3.78;;;;;;;6.69;74.69;101690.13;4975615;28;20059;-79
2021/03/28 01:49:42;;;;;;;12.10;3.70;;;;;;;6.72;74.44;101693.63;4976598;28;20134;-80
2021/03/28 01:52:14;;;;;;;8.88;3.65;;;;;;;6.75;74.76;101688.34;4985664;28;20112;-79
2021/03/28 01:54:43;;;;;;;;;;;;;;;6.74;74.93;101689.22;4977181;28;20055;-79
2021/03/28 01:57:38;;;;;;;8.68;3.88;;;;;;;6.77;74.34;101686.56;4985057;28;20019;-79
2021/03/28 02:01:21;;;;;;;11.88;4.03;;;;;;;6.77;74.73;101700.56;4981068;28;20058;-78
2021/03/28 02:04:19;;;;;;;11.30;4.15;;;;;;;6.78;74.54;101697.06;4872589;29;20082;-81
2021/03/28 02:07:04;;;;;;;12.77;4.43;;;;;;;6.78;74.52;101697.06;4868522;29;20152;-80
2021/03/28 02:09:39;;;;;;;8.90;4.25;;;;;;;6.75;74.65;101683.06;4978964;28;20051;-79
2021/03/28 02:12:33;;;;;;;8.63;4.45;;;;;;;6.74;75.31;101691.88;4990426;28;20203;-81
2021/03/28 02:15:29;;;;;;;8.50;4.20;;;;;;;6.70;74.95;101680.47;4980273;28;20102;-80
2021/03/28 02:18:14;;;;;;;10.50;4.22;;;;;;;6.68;75.65;101677.88;4964209;28;20069;-80
2021/03/28 02:20:46;;;;;;;7.93;4.38;;;;;;;6.69;75.06;101690.13;4977970;28;20094;-79
2021/03/28 02:23:29;;;;;;;11.30;4.72;;;;;;;6.71;75.45;101686.63;4977569;28;20098;-78
2021/03/28 02:26:05;;;;;;;11.40;4.68;;;;;;;6.74;75.63;101683.97;4980880;28;20585;-79
2021/03/28 02:28:55;;;;;;;10.13;4.85;;;;;;;6.75;75.57;101690.97;4978200;28;20078;-79
2021/03/28 02:31:26;;;;;;;11.32;4.68;;;;;;;6.78;75.13;101698.81;4983329;28;20075;-78
2021/03/28 02:34:13;;;;;;;10.77;4.47;;;;;;;6.82;75.01;101695.28;4987256;28;20058;-78
2021/03/28 02:36:58;;;;;;;9.80;4.57;;;;;;;6.81;74.91;101690.88;4993619;28;20031;-82
2021/03/28 02:39:46;;;;;;;9.07;4.80;;;;;;;6.76;75.17;101690.97;4984738;28;20073;-81
2021/03/28 02:42:32;;;;;;;10.82;4.85;;;;;;;6.69;75.28;101687.50;4991648;28;20055;-80
2021/03/28 02:45:06;;;;;;;8.40;4.30;;;;;;;6.66;74.86;101679.63;4986674;28;20438;-81
2021/03/28 02:47:50;;;;;;;11.07;5.03;;;;;;;6.66;75.69;101684.91;4986371;28;20054;-81
2021/03/28 02:51:07;;;;;;;9.25;4.28;;;;;;;6.68;75.77;101687.53;4985420;28;20058;-79
2021/03/28 02:54:10;;;;;;;13.20;4.47;;;;;;;6.66;75.21;101674.38;4959668;28;20081;-80
2021/03/28 02:56:56;;;;;;;10.13;4.30;;;;;;;6.62;75.05;101680.53;4983102;28;20050;-79
2021/03/28 02:59:31;;;;;;;13.02;4.82;;;;;;;6.60;75.40;101682.34;4980027;28;20090;-78
2021/03/28 03:02:13;;;;;;;12.27;4.72;;;;;;;6.60;75.79;101689.38;4977801;28;20199;-81
2021/03/28 03:05:18;;;;;;;15.00;4.75;;;;;;;6.57;75.56;101692.03;4977443;28;20474;-79
2021/03/28 03:07:54;;;;;;;10.70;5.00;;;;;;;6.59;75.86;101687.63;4985707;28;21931;-80
2021/03/28 03:10:40;;;;;;;11.85;4.65;;;;;;;6.56;75.73;101688.53;4992287;28;20067;-80
2021/03/28 03:13:36;;;;;;;8.48;4.72;;;;;;;6.50;76.48;101690.31;4988275;28;20072;-79
2021/03/28 03:16:19;;;;;;;9.90;4.93;;;;;;;6.58;76.33;101696.41;4980965;28;20131;-79
2021/03/28 03:19:13;;;;;;;11.32;5.15;;;;;;;6.60;76.70;101695.50;4982620;28;20078;-79
2021/03/28 03:22:17;;;;;;;11.73;4.70;;;;;;;6.59;76.65;101690.25;4984441;28;20077;-82
2021/03/28 03:24:58;;;;;;;15.40;5.47;;;;;;;6.58;76.78;101689.38;4984192;28;20047;-79
2021/03/28 03:27:58;;;;;;;11.68;4.88;;;;;;;6.54;76.34;101690.28;4970065;28;20055;-79
2021/03/28 03:31:22;;;;;;;10.50;4.72;;;;;;;6.51;76.53;101685.06;4967228;28;20074;-81
2021/03/28 03:34:13;;;;;;;10.63;5.13;;;;;;;6.52;76.63;101681.53;4926308;29;20514;-79
2021/03/28 03:36:49;;;;;;;;;;;;;;;6.57;76.33;101679.75;4939104;29;20056;-81
2021/03/28 03:39:37;;;;;;;12.07;5.68;;;;;;;6.60;76.36;101686.75;4971858;28;19930;-80
2021/03/28 03:42:09;;;;;;;12.82;5.55;;;;;;;6.62;76.09;101679.69;4979462;28;20055;-80
2021/03/28 03:45:10;;;;;;;11.43;5.00;;;;;;;6.64;76.50;101688.44;4980166;28;20057;-80
2021/03/28 03:47:43;;;;;;;8.90;5.00;;;;;;;6.62;76.33;101690.19;4937439;28;20061;-80
2021/03/28 03:50:25;;;;;;;10.85;5.38;;;;;;;6.63;75.98;101695.44;4978585;28;20463;-80
2021/03/28 03:53:09;;;;;;;11.38;5.20;;;;;;;6.61;76.34;101694.59;4978642;28;20110;-80
2021/03/28 03:55:43;;;;;;;12.40;5.20;;;;;;;6.62;76.56;101700.72;4981832;28;20589;-80
2021/03/28 03:58:27;;;;;;;9.35;4.78;;;;;;;6.63;76.11;101684.94;4957438;28;20043;-82
2021/03/28 04:01:01;;;;;;;10.65;5.25;;;;;;;6.64;76.02;101684.03;4978260;28;20066;-80
2021/03/28 04:03:38;;;;;;;11.13;5.00;;;;;;;6.68;76.28;101683.13;4978331;28;20074;-79
2021/03/28 04:06:18;;;;;;;12.90;6.13;;;;;;;6.65;76.00;101682.28;4974159;28;20138;-78
2021/03/28 04:09:02;;;;;;;13.55;5.35;;;;;;;6.68;76.47;101688.41;4982527;28;20078;-80
2021/03/28 04:11:41;;;;;;;10.35;5.18;;;;;;;6.68;75.68;101685.75;4982195;28;20075;-79
2021/03/28 04:14:14;;;;;;;14.50;5.47;;;;;;;6.71;75.81;101694.53;4976179;28;20107;-80
2021/03/28 04:17:09;;;;;;;12.35;5.45;;;;;;;6.76;76.35;101687.47;4963492;28;20059;-82
2021/03/28 04:20:01;;;;;;;16.00;6.13;;;;;;;6.78;76.14;101696.19;4987518;28;20050;-80
2021/03/28 04:22:37;;;;;;;14.68;5.10;;;;;;;6.79;75.88;101696.16;4961531;28;20081;-81
2021/03/28 04:25:32;;;;;;;15.23;5.93;;;;;;;6.80;75.68;101694.41;4979316;28;20082;-82
2021/03/28 04:28:05;;;;;;;13.38;5.20;;;;;;;6.77;75.95;101690.03;4974713;28;20074;-81
2021/03/28 04:31:11;;;;;;;9.05;4.90;;;;;;;6.74;76.01;101683.97;4972508;28;20165;-80
2021/03/28 04:34:17;;;;;;;11.55;5.45;;;;;;;6.77;76.02;101697.09;4976495;28;20502;-80
2021/03/28 04:37:08;;;;;;;11.32;5.72;;;;;;;6.80;75.62;101697.91;4975329;28;20051;-80
2021/03/28 04:39:55;;;;;;;13.15;5.63;;;;;;;6.80;76.19;101702.31;4976704;28;20122;-80
2021/03/28 04:42:42;;;;;;;18.40;6.70;;;;;;;6.81;75.21;101699.66;4954585;28;20047;-80
2021/03/28 04:45:32;;;;;;;12.52;6.15;;;;;;;6.79;75.66;101692.66;4988228;28;20104;-83
2021/03/28 04:48:13;;;;;;;11.13;5.97;;;;;;;6.75;75.84;101694.47;4990858;28;20114;-82
2021/03/28 04:51:04;;;;;;;12.25;5.90;;;;;;;6.74;75.84;101694.50;4990375;28;20038;-81
2021/03/28 04:54:25;;;;;;;9.95;5.20;;;;;;;6.71;75.86;101700.66;5007179;28;20114;-81
2021/03/28 04:57:02;;;;;;;13.98;5.55;;;;;;;6.66;75.97;101698.06;4900609;29;20135;-79
2021/03/28 04:59:49;;;;;;;10.55;5.88;;;;;;;6.67;76.07;101706.84;4975840;28;20097;-79
2021/03/28 05:02:16;;;;;;;10.60;6.18;;;;;;;6.65;76.13;101701.56;4972104;28;20555;-79
2021/03/28 05:05:23;;;;;;;12.82;6.32;;;;;;;6.61;76.57;101710.38;4968898;28;20119;-80
2021/03/28 05:08:28;;;;;;;15.18;7.30;;;;;;;6.58;76.62;101713.06;4981615;28;20050;-79
2021/03/28 05:11:09;;;;;;;18.02;7.05;;;;;;;6.54;76.66;101724.50;4984075;28;20063;-81
2021/03/28 05:13:55;;;;;;;14.15;6.95;;;;;;;6.50;76.84;101717.53;4983205;28;20043;-80
2021/03/28 05:16:41;;;;;;;12.18;6.13;;;;;;;6.56;76.46;101722.75;4973926;28;20082;-80
2021/03/28 05:19:19;;;;;;;13.18;6.88;;;;;;;6.54;76.45;101726.25;4957144;28;20443;-82
2021/03/28 05:22:19;;;;;;;15.40;6.32;;;;;;;6.50;75.96;101724.53;4972879;28;20406;-82
2021/03/28 05:25:22;;;;;;;15.23;5.95;;;;;;;6.43;76.22;101718.47;4971922;28;20438;-79
2021/03/28 05:28:09;;;;;;;14.77;6.85;;;;;;;6.45;77.08;101729.88;4967798;28;20094;-79
2021/03/28 05:30:56;;;;;;;11.40;6.53;;;;;;;6.47;77.15;101725.44;4975745;28;20058;-79
2021/03/28 05:34:10;;;;;;;14.32;7.28;;;;;;;6.52;77.09;101723.66;4965824;28;20150;-79
2021/03/28 05:37:14;;;;;;;13.15;6.53;;;;;;;6.60;77.12;101720.97;4934076;28;20109;-81
2021/03/28 05:40:01;;;;;;;13.85;6.32;;;;;;;6.61;76.77;101720.91;4973029;28;20089;-80
2021/03/28 05:42:46;;;;;;;17.40;6.03;;;;;;;6.67;76.58;101738.41;4972407;28;20137;-80
2021/03/28 05:45:30;;;;;;;14.52;6.30;;;;;;;6.69;76.04;101723.47;4967902;28;20154;-81
2021/03/28 05:48:42;;;;;;;13.32;6.35;;;;;;;6.75;76.12;101731.34;4971397;28;20516;-81
2021/03/28 05:51:25;;;;;;;16.52;6.28;;;;;;;6.79;75.97;101721.63;4966214;28;20085;-82
2021/03/28 05:54:26;;;;;;;13.50;6.38;;;;;;;6.87;75.55;101722.44;4959274;28;20054;-80
2021/03/28 05:57:04;;;;;;;11.77;5.80;;;;;;;6.94;75.58;101726.72;4972176;28;20050;-80
2021/03/28 05:59:44;;;;;;;13.35;6.03;;;;;;;7.03;75.44;101726.63;4973724;28;20074;-81
2021/03/28 06:02:26;;;;;;;13.18;5.70;;;;;;;7.07;75.07;101723.09;4969360;28;20101;-80
2021/03/28 06:05:15;;;;;;;9.57;5.72;;;;;;;7.16;74.92;101730.88;4966149;28;20051;-80
2021/03/28 06:08:03;;;;;;;13.23;5.93;;;;;;;7.27;74.33;101741.28;4966039;28;20494;-80
2021/03/28 06:11:06;;;;;;;12.25;5.78;;;;;;;7.32;73.84;101756.16;4966178;28;20054;-78
2021/03/28 06:13:47;;;;;;;13.43;6.18;;;;;;;7.31;73.32;101737.72;4972824;28;20051;-80
2021/03/28 06:16:20;;;;;;;;;;;;;;;7.46;73.54;101760.38;4980603;28;20082;-80
2021/03/28 06:19:23;;;;;;;13.55;5.78;;;;;;;7.53;73.41;101767.34;4981866;28;19925;-79
2021/03/28 06:22:07;;;;;;;11.80;5.75;;;;;;;7.50;73.06;101751.53;4978421;28;20054;-80
2021/03/28 06:25:11;;;;;;;10.43;5.75;;;;;;;7.45;72.70;101762.13;4985355;28;20186;-80
2021/03/28 06:27:58;;;;;;;13.15;5.85;;;;;;;7.39;73.59;101760.47;4983667;28;20042;-82
2021/03/28 06:30:52;;;;;;;12.55;5.78;;;;;;;7.36;73.39;101771.03;4985457;28;20059;-80
2021/03/28 06:33:47;;;;;;;19.75;6.45;;;;;;;7.28;73.82;101772.00;4973336;28;20093;-81
2021/03/28 06:36:51;;;;;;;16.42;6.68;;;;;;;7.26;73.94;101757.97;4974258;28;20059;-81
2021/03/28 06:39:38;;;;;;;14.40;6.40;;;;;;;7.28;73.81;101764.97;4966847;28;20062;-80
2021/03/28 06:42:18;;;;;;;12.23;6.18;;;;;;;7.37;73.72;101766.66;4973377;28;20051;-80
2021/03/28 06:45:21;;;;;;;10.73;6.33;;;;;;;7.56;73.72;101764.63;4964139;28;20039;-81
2021/03/28 06:48:14;;;;;;;15.43;5.93;;;;;;;7.97;72.16;101778.16;4974378;28;20110;-80
2021/03/28 06:50:47;;;;;;;10.43;6.28;;;;;;;8.77;70.23;101777.78;4993410;28;20073;-80
2021/03/28 06:54:12;;;;;;;14.55;6.03;;;;;;;9.90;64.55;101778.19;4983870;28;20063;-82
2021/03/28 06:56:59;;;;;;;13.98;5.45;;;;;;;9.92;63.81;101782.50;4980676;28;20110;-80
2021/03/28 07:00:04;;;;;;;12.55;5.57;;;;;;;9.86;63.73;101777.38;4991666;28;20127;-80
2021/03/28 07:02:52;;;;;;;10.15;4.97;;;;;;;10.33;62.85;101789.56;4942358;28;20085;-82
2021/03/28 07:05:44;;;;;;;14.07;5.40;;;;;;;11.33;59.87;101790.50;4992399;28;20054;-80
2021/03/28 07:08:29;;;;;;;12.15;5.20;;;;;;;12.44;56.38;101785.34;4984003;28;20494;-79
2021/03/28 07:10:57;;;;;;;12.50;5.47;;;;;;;13.31;52.77;101787.72;4986617;28;20074;-79
2021/03/28 07:13:44;;;;;;;11.38;5.15;;;;;;;13.53;52.43;101788.69;4981609;28;20062;-79
2021/03/28 07:16:24;;;;;;;11.05;4.68;;;;;;;13.56;51.83;101796.53;4977676;28;20067;-80
2021/03/28 07:19:20;;;;;;;12.10;5.63;;;;;;;14.00;49.77;101799.31;4975752;28;20109;-81
2021/03/28 07:22:30;;;;;;;11.45;5.75;;;;;;;14.38;48.45;101797.78;4980211;28;20072;-81
2021/03/28 07:25:20;;;;;;;12.20;5.72;;;;;;;14.98;46.67;101799.72;4985000;28;20054;-81
2021/03/28 07:28:14;;;;;;;9.80;5.22;;;;;;;14.88;47.18;101801.06;4974552;28;20582;-81
2021/03/28 07:31:04;;;;;;;10.88;5.63;;;;;;;15.58;44.50;101798.00;4981100;28;20051;-82
2021/03/28 07:34:06;;;;;;;11.05;5.32;;;;;;;15.87;43.28;101798.47;4983533;28;20089;-80
2021/03/28 07:37:09;;;;;;;12.30;5.63;;;;;;;15.98;43.49;101798.81;4989219;28;20134;-82
2021/03/28 07:40:21;;;;;;;9.55;5.13;;;;;;;16.42;42.97;101800.22;5000242;28;20047;-82
2021/03/28 07:43:13;;;;;;;10.02;5.13;;;;;;;17.13;40.19;101797.56;5002931;28;20070;-83
2021/03/28 07:46:04;;;;;;;11.02;5.45;;;;;;;17.65;39.66;101803.69;4981585;28;20049;-81
2021/03/28 07:48:33;;;;;;;13.52;5.82;;;;;;;17.06;40.01;101805.03;4972243;28;20126;-81
2021/03/28 07:51:15;;;;;;;11.07;5.95;;;;;;;17.01;40.84;101801.72;4992751;28;20047;-82
2021/03/28 07:53:55;;;;;;;14.93;6.03;;;;;;;16.76;42.49;101798.56;4979161;28;20034;-82
2021/03/28 07:56:32;;;;;;;8.85;5.00;;;;;;;17.35;40.53;101794.59;4994171;28;20062;-82
2021/03/28 07:59:25;;;;;;;12.90;5.60;;;;;;;18.15;38.88;101797.38;4999710;28;20078;-84
2021/03/28 08:02:22;;;;;;;7.70;5.05;;;;;;;18.27;37.72;101794.00;4997671;28;20061;-83
2021/03/28 08:05:03;;;;;;;11.77;5.35;;;;;;;18.28;37.85;101803.75;4988553;28;20039;-80
2021/03/28 08:07:50;;;;;;;15.43;5.65;;;;;;;18.15;36.96;101792.88;4993385;28;20137;-82
2021/03/28 08:10:22;;;;;;;10.50;5.00;;;;;;;17.94;37.23;101796.78;4991913;28;20054;-82
2021/03/28 08:12:57;;;;;;;12.07;5.40;;;;;;;18.06;37.27;101790.72;4987779;28;20090;-82
2021/03/28 08:15:39;;;;;;;14.93;5.57;;;;;;;18.30;36.78;101785.78;4984910;28;20094;-81
2021/03/28 08:18:14;;;;;;;9.32;5.03;;;;;;;18.47;36.16;101799.09;4974926;28;20078;-81
2021/03/28 08:21:04;;;;;;;13.25;5.70;;;;;;;18.46;36.84;101796.50;4959998;28;20074;-79
2021/03/28 08:23:55;;;;;;;12.40;5.75;;;;;;;18.91;36.44;101785.75;4983058;28;20050;-83
2021/03/28 08:26:29;;;;;;;12.68;6.00;;;;;;;19.18;35.33;101796.69;4991504;28;20050;-81
2021/03/28 08:29:33;;;;;;;12.18;5.80;;;;;;;18.93;34.89;101788.38;4983242;28;20043;-80
2021/03/28 08:32:11;;;;;;;11.27;5.97;;;;;;;19.27;35.81;101781.81;4983303;28;20089;-82
2021/03/28 08:35:13;;;;;;;10.73;6.28;;;;;;;19.03;36.00;101780.66;4980583;28;20078;-81
2021/03/28 08:37:45;;;;;;;11.60;6.57;;;;;;;18.65;35.49;101775.72;4983474;28;20146;-82
2021/03/28 08:40:38;;;;;;;12.88;5.72;;;;;;;17.95;36.47;101763.63;4983298;28;20123;-83
2021/03/28 08:43:30;;;;;;;12.25;5.80;;;;;;;17.83;37.65;101770.56;4975477;28;20122;-82
2021/03/28 08:45:59;;;;;;;;;;;;;;;17.67;37.71;101769.66;4989436;28;20083;-82
2021/03/28 08:48:56;;;;;;;9.38;5.43;;;;;;;16.94;38.45;101776.22;4987491;28;19926;-82
2021/03/28 08:51:33;;;;;;;;;;;;;;;16.14;40.44;101787.31;4978549;28;20159;-80
2021/03/28 08:54:36;;;;;;;10.55;5.47;;;;;;;15.61;42.44;101781.81;4976127;28;19921;-81
2021/03/28 08:57:29;;;;;;;10.25;5.60;;;;;;;15.02;45.52;101785.31;4973946;28;20134;-81
2021/03/28 09:00:34;;;;;;;13.52;6.38;;;;;;;14.49;46.80;101786.72;4973556;28;20647;-81
2021/03/28 09:03:11;;;;;;;13.50;7.10;;;;;;;13.90;46.30;101773.94;4974596;28;20594;-82
2021/03/28 09:05:49;;;;;;;17.67;7.28;;;;;;;13.27;48.17;101771.00;4980576;28;20062;-80
2021/03/28 09:08:21;;;;;;;13.13;7.43;;;;;;;12.91;49.61;101774.91;4973006;28;20114;-80
2021/03/28 09:11:25;;;;;;;13.95;6.72;;;;;;;12.56;50.42;101774.34;4973231;28;20109;-83
2021/03/28 09:14:19;;;;;;;14.68;7.47;;;;;;;12.45;50.51;101773.81;4973324;28;20104;-81
2021/03/28 09:17:00;;;;;;;15.15;7.47;;;;;;;12.30;50.96;101764.56;4975109;28;20065;-80
2021/03/28 09:20:05;;;;;;;19.60;7.90;;;;;;;12.30;51.40;101771.66;4978409;28;20133;-82
2021/03/28 09:22:44;;;;;;;14.65;6.47;;;;;;;12.30;51.81;101769.88;4961393;28;20058;-80
2021/03/28 09:25:49;;;;;;;17.08;6.78;;;;;;;12.39;51.27;101766.06;4982187;28;20043;-78
2021/03/28 09:28:31;;;;;;;13.07;5.95;;;;;;;12.35;51.79;101766.19;4988860;28;20117;-82
2021/03/28 09:30:57;;;;;;;13.70;5.63;;;;;;;12.42;51.88;101767.75;4999583;28;20102;-82
2021/03/28 09:34:12;;;;;;;13.20;6.18;;;;;;;12.51;51.30;101768.31;4973089;28;20085;-80
2021/03/28 09:36:54;;;;;;;13.00;6.15;;;;;;;12.56;50.92;101755.75;4981623;28;20093;-80
2021/03/28 09:39:41;;;;;;;14.15;5.88;;;;;;;12.62;50.62;101765.28;4982570;28;20111;-80
2021/03/28 09:42:37;;;;;;;16.02;6.03;;;;;;;12.67;51.03;101763.34;4968219;28;20054;-82
2021/03/28 09:45:32;;;;;;;13.15;6.68;;;;;;;12.81;50.35;101766.41;4977660;28;20070;-79
2021/03/28 09:48:10;;;;;;;15.30;6.35;;;;;;;12.92;50.11;101763.34;4967068;28;20118;-81
2021/03/28 09:50:55;;;;;;;15.32;7.18;;;;;;;13.08;50.10;101782.31;4976941;28;20065;-83
2021/03/28 09:53:33;;;;;;;16.95;7.20;;;;;;;13.12;49.96;101771.50;4969287;28;20814;-81
2021/03/28 09:56:37;;;;;;;14.88;6.60;;;;;;;13.09;49.76;101765.44;4979887;28;20140;-79
2021/03/28 09:59:24;;;;;;;14.10;6.53;;;;;;;13.05;49.80;101762.03;4974666;28;20088;-81
2021/03/28 10:02:19;;;;;;;12.77;6.13;;;;;;;13.13;49.57;101753.75;4970590;28;20047;-80
2021/03/28 10:04:57;;;;;;;13.32;5.40;;;;;;;13.32;49.19;101753.06;4975401;28;20058;-82
2021/03/28 10:07:36;;;;;;;13.20;5.22;;;;;;;13.46;48.44;101752.56;4970213;28;20069;-80
2021/03/28 10:10:27;;;;;;;12.25;5.50;;;;;;;13.32;49.34;101747.75;4968443;28;20142;-80
2021/03/28 10:13:05;;;;;;;12.02;5.15;;;;;;;13.23;49.52;101753.41;4971022;28;20078;-81
2021/03/28 10:15:40;;;;;;;14.00;6.15;;;;;;;13.15;49.39;101749.28;4974084;28;20061;-80
2021/03/28 10:18:24;;;;;;;11.50;6.30;;;;;;;13.15;49.73;101744.84;4964707;28;20039;-81
2021/03/28 10:20:53;;;;;;;12.88;6.70;;;;;;;13.25;49.72;101751.56;4983358;28;20134;-82
2021/03/28 10:24:05;;;;;;;12.15;6.25;;;;;;;13.41;49.95;101754.53;4982252;28;20061;-82
2021/03/28 10:26:49;;;;;;;10.40;5.75;;;;;;;13.67;49.60;101743.78;4916842;29;20182;-81
2021/03/28 10:29:42;;;;;;;14.48;6.18;;;;;;;13.94;48.82;101752.47;4965658;28;20058;-83
2021/03/28 10:32:25;;;;;;;13.18;6.32;;;;;;;13.83;48.33;101733.41;4969613;28;20421;-82
2021/03/28 10:35:20;;;;;;;10.65;6.05;;;;;;;14.04;47.35;101748.50;4974704;28;20074;-81
2021/03/28 10:38:08;;;;;;;11.73;5.10;;;;;;;14.09;46.96;101742.13;4955658;28;20058;-79
2021/03/28 10:41:05;;;;;;;10.00;3.00;;;;;;;14.14;43.22;101746.38;4969897;28;20086;-82
2021/03/28 10:43:38;;;;;;;5.25;1.95;;;;;;;14.22;39.74;101741.59;4972097;28;20047;-82
2021/03/28 10:46:23;;;;;;;4.70;1.55;;;;;;;14.35;37.72;101732.16;4972086;28;20114;-79
2021/03/28 10:49:02;;;;;;;5.07;1.98;;;;;;;14.66;38.93;101731.75;4979812;28;20054;-80
2021/03/28 10:51:46;;;;;;;4.78;2.00;;;;;;;15.16;37.26;101734.03;4975281;28;20134;-79
2021/03/28 10:54:50;;;;;;;3.10;1.50;;;;;;;15.32;36.26;101728.84;4978727;28;20074;-79
2021/03/28 10:57:50;;;;;;;4.82;1.48;;;;;;;15.44;36.12;101729.16;4986539;28;20066;-83
2021/03/28 11:00:46;;;;;;;8.70;1.95;;;;;;;15.31;37.60;101729.78;5002533;28;20051;-81
2021/03/28 11:03:34;;;;;;;6.32;1.83;;;;;;;15.13;36.38;101730.63;4975159;28;20047;-82
2021/03/28 11:06:36;;;;;;;5.28;2.10;;;;;;;14.80;37.43;101722.28;4977993;28;20055;-82
2021/03/28 11:09:32;;;;;;;4.28;1.70;;;;;;;14.59;38.52;101718.78;4946353;28;20058;-81
2021/03/28 11:12:37;;;;;;;4.25;1.95;;;;;;;14.44;39.29;101720.28;4968500;28;20066;-81
2021/03/28 11:15:42;;;;;;;4.97;1.90;;;;;;;14.32;37.76;101702.13;4987487;28;20070;-81
2021/03/28 11:18:56;;;;;;;5.47;1.48;;;;;;;14.59;37.80;101705.44;4947344;28;20050;-80
2021/03/28 11:22:01;;;;;;;5.75;2.33;;;;;;;14.95;40.01;101711.81;4967476;28;20063;-80
2021/03/28 11:24:52;;;;;;;6.63;2.03;;;;;;;15.28;36.72;101705.91;4980310;28;20115;-83
2021/03/28 11:27:45;;;;;;;12.35;7.03;;;;;;;15.19;35.60;101701.88;4988240;28;20205;-84
2021/03/28 11:30:37;;;;;;;3.85;1.60;;;;;;;15.13;38.04;101695.94;4970045;28;20057;-79
2021/03/28 11:33:40;;;;;;;5.50;1.75;;;;;;;15.11;35.90;101695.16;4984181;28;20086;-80
2021/03/28 11:36:22;;;;;;;6.55;2.05;;;;;;;14.97;36.40;101696.63;4968638;28;20224;-81
2021/03/28 11:39:27;;;;;;;4.82;1.98;;;;;;;14.94;37.12;101704.78;4976152;28;20074;-82
2021/03/28 11:42:11;;;;;;;7.15;1.98;;;;;;;15.00;36.72;101703.63;4973093;28;20133;-79
2021/03/28 11:45:04;;;;;;;5.95;1.92;;;;;;;15.00;36.94;101704.50;4963586;28;20077;-79
2021/03/28 11:47:57;;;;;;;5.63;1.95;;;;;;;15.02;37.39;101704.44;4974873;28;20185;-80
2021/03/28 11:50:23;;;;;;;4.88;1.98;;;;;;;15.07;37.16;101689.09;4970839;28;20678;-82
2021/03/28 11:53:04;;;;;;;8.95;2.00;;;;;;;14.92;37.29;101695.09;4971442;28;20437;-80
2021/03/28 11:55:50;;;;;;;6.30;2.00;;;;;;;14.85;37.59;101705.16;4975701;28;20051;-80
2021/03/28 11:58:37;;;;;;;4.07;1.73;;;;;;;14.76;38.09;101691.38;4984679;28;20054;-80
2021/03/28 12:01:05;;;;;;;8.10;2.50;;;;;;;14.74;38.60;101689.66;4983873;28;20146;-83
2021/03/28 12:03:41;;;;;;;7.85;2.25;;;;;;;14.80;37.97;101687.63;4986111;28;20094;-79
2021/03/28 12:06:16;;;;;;;7.25;2.03;;;;;;;15.00;38.65;101688.50;4983106;28;20065;-81
2021/03/28 12:08:45;;;;;;;8.45;1.90;;;;;;;15.22;38.11;101685.72;4984827;28;20059;-80
2021/03/28 12:11:36;;;;;;;6.03;1.98;;;;;;;15.33;37.65;101683.41;4978277;28;20121;-79
2021/03/28 12:14:18;;;;;;;5.80;2.00;;;;;;;15.45;37.66;101671.28;4974068;28;20051;-82
2021/03/28 12:17:09;;;;;;;9.32;2.47;;;;;;;15.53;37.62;101663.81;4978794;28;20054;-80
2021/03/28 12:19:55;;;;;;;5.72;1.95;;;;;;;15.36;37.63;101655.72;4981300;28;20082;-81
2021/03/28 12:22:54;;;;;;;6.22;2.40;;;;;;;15.54;37.52;101659.34;4981292;28;20156;-82
2021/03/28 12:25:30;;;;;;;7.70;1.92;;;;;;;15.56;37.68;101658.38;4993345;28;20117;-82
2021/03/28 12:27:56;;;;;;;6.95;2.22;;;;;;;15.67;37.07;101666.72;4973089;28;20051;-83
2021/03/28 12:30:29;;;;;;;6.38;1.90;;;;;;;15.81;36.64;101660.72;4990024;28;20064;-83
2021/03/28 12:33:10;;;;;;;6.65;1.85;;;;;;;16.01;36.38;101657.94;4984785;28;20047;-80
2021/03/28 12:35:56;;;;;;;7.40;1.92;;;;;;;16.04;36.04;101651.56;4987507;28;20111;-81
2021/03/28 12:38:28;;;;;;;5.45;1.70;;;;;;;15.69;36.67;101650.63;4991979;28;20062;-86
2021/03/28 12:41:13;;;;;;;6.07;2.22;;;;;;;15.43;37.23;101643.81;4986525;28;20094;-83
2021/03/28 12:43:43;;;;;;;6.43;2.13;;;;;;;15.32;37.49;101646.13;4996386;28;20062;-81
2021/03/28 12:46:48;;;;;;;5.70;2.03;;;;;;;15.48;37.23;101638.25;4991459;28;20046;-80
2021/03/28 12:49:18;;;;;;;5.72;2.22;;;;;;;15.69;36.80;101630.13;4974638;28;20486;-78
2021/03/28 12:52:01;;;;;;;4.07;1.67;;;;;;;15.71;36.29;101636.25;5038929;23;20057;-78
2021/03/28 12:54:35;;;;;;;6.13;1.88;;;;;;;15.93;36.14;101627.19;5037714;28;20053;-80
2021/03/28 12:57:24;;;;;;;;;;;;;;;16.20;35.85;101636.50;5035085;28;20085;-82
2021/03/28 12:59:50;;;;;;;7.15;2.40;;;;;;;16.37;35.36;101625.78;5021799;28;19921;-81